Marbella, Spain
Current Conditions -  °F | °C
As of 10:30 AM on Friday 24 Oct 2014 (Local Time) from LEMG Reporting Station
Clear Clear  
Wind Chill: 61°   Ceiling: Unl
Heat Index: 61°   Visibility: 6mi
Dew Point: 55°   Wind: 7mph
Humidity: 82%   Direction: 300°WNW
Pressure: 30.03"   Gusts: NA
Location:  36.51°N, 4.89°W
Report Text: LEMG 240830Z 30006KT CAVOK 16/13 Q1017 NOSIG
Loading
Personal Weather Stations






























Interactive Weather Map
Tropical Storm Tracking
New forecast layout! Learn more

10-Day Weather Forecast

Advertisements
Track Severe Weather on mobile